sensor_id;sensor_type;location;lat;lon;timestamp;temperature;humidity
47338;DHT22;33069;51.970;5.892;2022-09-09T00:00:43;14.80;89.00
47338;DHT22;33069;51.970;5.892;2022-09-09T00:03:17;14.80;89.20
47338;DHT22;33069;51.970;5.892;2022-09-09T00:08:21;15.00;89.50
47338;DHT22;33069;51.970;5.892;2022-09-09T00:10:54;14.90;89.40
47338;DHT22;33069;51.970;5.892;2022-09-09T00:13:34;14.90;89.40
47338;DHT22;33069;51.970;5.892;2022-09-09T00:19:01;14.70;89.40
47338;DHT22;33069;51.970;5.892;2022-09-09T00:21:43;14.70;89.60
47338;DHT22;33069;51.970;5.892;2022-09-09T00:24:28;14.90;89.70
47338;DHT22;33069;51.970;5.892;2022-09-09T00:27:09;14.80;89.70
47338;DHT22;33069;51.970;5.892;2022-09-09T00:29:44;15.00;89.80
47338;DHT22;33069;51.970;5.892;2022-09-09T00:32:16;14.90;89.80
47338;DHT22;33069;51.970;5.892;2022-09-09T00:35:04;14.90;89.80
47338;DHT22;33069;51.970;5.892;2022-09-09T00:37:42;15.00;89.80
47338;DHT22;33069;51.970;5.892;2022-09-09T00:51:29;15.00;89.80
47338;DHT22;33069;51.970;5.892;2022-09-09T00:54:22;15.20;89.80
47338;DHT22;33069;51.970;5.892;2022-09-09T00:59:52;15.00;89.40
47338;DHT22;33069;51.970;5.892;2022-09-09T01:02:35;15.00;89.30
47338;DHT22;33069;51.970;5.892;2022-09-09T01:05:58;14.90;89.30
47338;DHT22;33069;51.970;5.892;2022-09-09T01:07:58;14.90;89.40
47338;DHT22;33069;51.970;5.892;2022-09-09T01:13:05;14.90;89.40
47338;DHT22;33069;51.970;5.892;2022-09-09T01:15:34;14.80;89.40
47338;DHT22;33069;51.970;5.892;2022-09-09T01:28:34;14.60;89.30
47338;DHT22;33069;51.970;5.892;2022-09-09T01:31:04;14.60;89.30
47338;DHT22;33069;51.970;5.892;2022-09-09T01:33:31;14.50;89.20
47338;DHT22;33069;51.970;5.892;2022-09-09T01:36:33;14.50;89.30
47338;DHT22;33069;51.970;5.892;2022-09-09T01:39:01;14.50;89.40
47338;DHT22;33069;51.970;5.892;2022-09-09T01:41:27;14.50;89.40
47338;DHT22;33069;51.970;5.892;2022-09-09T01:43:54;14.50;89.30
47338;DHT22;33069;51.970;5.892;2022-09-09T01:46:22;14.40;89.40
47338;DHT22;33069;51.970;5.892;2022-09-09T01:48:50;14.30;89.40
47338;DHT22;33069;51.970;5.892;2022-09-09T01:51:16;14.40;89.50
47338;DHT22;33069;51.970;5.892;2022-09-09T01:53:43;14.40;89.50
47338;DHT22;33069;51.970;5.892;2022-09-09T01:56:35;14.40;89.50
47338;DHT22;33069;51.970;5.892;2022-09-09T02:04:44;14.40;89.40
47338;DHT22;33069;51.970;5.892;2022-09-09T02:07:30;14.30;89.40
47338;DHT22;33069;51.970;5.892;2022-09-09T02:10:11;14.20;89.30
47338;DHT22;33069;51.970;5.892;2022-09-09T02:12:44;14.20;89.40
47338;DHT22;33069;51.970;5.892;2022-09-09T02:15:18;14.30;89.40
47338;DHT22;33069;51.970;5.892;2022-09-09T02:17:46;14.30;89.40
47338;DHT22;33069;51.970;5.892;2022-09-09T02:20:15;14.20;89.30
47338;DHT22;33069;51.970;5.892;2022-09-09T02:22:44;14.20;89.30
47338;DHT22;33069;51.970;5.892;2022-09-09T02:25:13;14.20;89.20
47338;DHT22;33069;51.970;5.892;2022-09-09T02:27:43;14.10;89.30
47338;DHT22;33069;51.970;5.892;2022-09-09T02:30:11;14.10;89.30
47338;DHT22;33069;51.970;5.892;2022-09-09T02:32:38;14.10;89.30
47338;DHT22;33069;51.970;5.892;2022-09-09T02:35:15;14.00;89.30
47338;DHT22;33069;51.970;5.892;2022-09-09T02:37:44;14.00;89.30
47338;DHT22;33069;51.970;5.892;2022-09-09T02:40:14;14.00;89.40
47338;DHT22;33069;51.970;5.892;2022-09-09T02:42:42;14.00;89.30
47338;DHT22;33069;51.970;5.892;2022-09-09T02:45:10;14.00;89.40
47338;DHT22;33069;51.970;5.892;2022-09-09T02:47:59;14.00;89.40
47338;DHT22;33069;51.970;5.892;2022-09-09T02:50:34;14.00;89.40
47338;DHT22;33069;51.970;5.892;2022-09-09T02:58:18;14.00;89.40
47338;DHT22;33069;51.970;5.892;2022-09-09T03:00:49;13.90;89.30
47338;DHT22;33069;51.970;5.892;2022-09-09T03:03:16;13.80;89.30
47338;DHT22;33069;51.970;5.892;2022-09-09T03:05:43;13.80;89.40
47338;DHT22;33069;51.970;5.892;2022-09-09T03:08:09;13.80;89.50
47338;DHT22;33069;51.970;5.892;2022-09-09T03:10:35;13.80;89.50
47338;DHT22;33069;51.970;5.892;2022-09-09T03:13:02;13.90;89.50
47338;DHT22;33069;51.970;5.892;2022-09-09T03:15:30;13.90;89.60
47338;DHT22;33069;51.970;5.892;2022-09-09T03:17:57;13.80;89.50
47338;DHT22;33069;51.970;5.892;2022-09-09T03:20:28;13.90;89.60
47338;DHT22;33069;51.970;5.892;2022-09-09T03:22:54;13.80;89.60
47338;DHT22;33069;51.970;5.892;2022-09-09T03:25:20;13.90;89.70
47338;DHT22;33069;51.970;5.892;2022-09-09T03:27:48;14.00;89.60
47338;DHT22;33069;51.970;5.892;2022-09-09T03:30:15;14.00;89.60
47338;DHT22;33069;51.970;5.892;2022-09-09T03:32:41;14.00;89.50
47338;DHT22;33069;51.970;5.892;2022-09-09T03:35:07;14.00;89.50
47338;DHT22;33069;51.970;5.892;2022-09-09T03:37:33;13.80;89.40
47338;DHT22;33069;51.970;5.892;2022-09-09T03:39:59;13.90;89.60
47338;DHT22;33069;51.970;5.892;2022-09-09T03:42:25;13.80;89.60
47338;DHT22;33069;51.970;5.892;2022-09-09T03:44:51;13.80;89.60
47338;DHT22;33069;51.970;5.892;2022-09-09T03:47:18;13.80;89.70
47338;DHT22;33069;51.970;5.892;2022-09-09T03:49:44;13.80;89.70
47338;DHT22;33069;51.970;5.892;2022-09-09T03:52:10;13.90;89.70
47338;DHT22;33069;51.970;5.892;2022-09-09T03:54:36;13.90;89.80
47338;DHT22;33069;51.970;5.892;2022-09-09T03:57:02;13.90;89.80
47338;DHT22;33069;51.970;5.892;2022-09-09T03:59:28;14.00;89.80
47338;DHT22;33069;51.970;5.892;2022-09-09T04:01:54;14.00;89.80
47338;DHT22;33069;51.970;5.892;2022-09-09T04:04:20;14.00;89.90
47338;DHT22;33069;51.970;5.892;2022-09-09T04:06:46;14.00;89.90
47338;DHT22;33069;51.970;5.892;2022-09-09T04:09:14;14.10;89.90
47338;DHT22;33069;51.970;5.892;2022-09-09T04:11:39;14.20;90.00
47338;DHT22;33069;51.970;5.892;2022-09-09T04:14:05;14.20;89.90
47338;DHT22;33069;51.970;5.892;2022-09-09T04:16:32;14.10;89.80
47338;DHT22;33069;51.970;5.892;2022-09-09T04:18:58;14.20;89.90
47338;DHT22;33069;51.970;5.892;2022-09-09T04:21:25;14.30;90.00
47338;DHT22;33069;51.970;5.892;2022-09-09T04:23:51;14.30;89.90
47338;DHT22;33069;51.970;5.892;2022-09-09T04:26:17;14.20;89.80
47338;DHT22;33069;51.970;5.892;2022-09-09T04:28:43;14.30;89.80
47338;DHT22;33069;51.970;5.892;2022-09-09T04:31:14;14.30;89.80
47338;DHT22;33069;51.970;5.892;2022-09-09T04:33:41;14.30;89.80
47338;DHT22;33069;51.970;5.892;2022-09-09T04:36:07;14.30;89.80
47338;DHT22;33069;51.970;5.892;2022-09-09T04:38:33;14.40;89.90
47338;DHT22;33069;51.970;5.892;2022-09-09T04:40:59;14.30;89.80
47338;DHT22;33069;51.970;5.892;2022-09-09T04:43:25;14.40;89.80
47338;DHT22;33069;51.970;5.892;2022-09-09T04:45:51;14.50;89.90
47338;DHT22;33069;51.970;5.892;2022-09-09T04:48:18;14.50;89.80
47338;DHT22;33069;51.970;5.892;2022-09-09T04:50:44;14.60;89.80
47338;DHT22;33069;51.970;5.892;2022-09-09T04:53:09;14.70;89.70
47338;DHT22;33069;51.970;5.892;2022-09-09T04:55:35;14.70;89.70
47338;DHT22;33069;51.970;5.892;2022-09-09T04:58:05;14.60;89.50
47338;DHT22;33069;51.970;5.892;2022-09-09T05:00:31;14.70;89.50
47338;DHT22;33069;51.970;5.892;2022-09-09T05:02:57;14.70;89.60
47338;DHT22;33069;51.970;5.892;2022-09-09T05:05:23;14.70;89.50
47338;DHT22;33069;51.970;5.892;2022-09-09T05:07:49;14.80;89.50
47338;DHT22;33069;51.970;5.892;2022-09-09T05:10:15;14.80;89.50
47338;DHT22;33069;51.970;5.892;2022-09-09T05:12:42;14.80;89.40
47338;DHT22;33069;51.970;5.892;2022-09-09T05:15:08;14.90;89.40
47338;DHT22;33069;51.970;5.892;2022-09-09T05:17:34;14.90;89.40
47338;DHT22;33069;51.970;5.892;2022-09-09T05:20:01;14.90;89.30
47338;DHT22;33069;51.970;5.892;2022-09-09T05:22:29;15.00;89.20
47338;DHT22;33069;51.970;5.892;2022-09-09T05:24:55;15.00;89.10
47338;DHT22;33069;51.970;5.892;2022-09-09T05:27:21;15.00;89.00
47338;DHT22;33069;51.970;5.892;2022-09-09T05:29:47;15.10;89.00
47338;DHT22;33069;51.970;5.892;2022-09-09T05:32:13;15.10;89.00
47338;DHT22;33069;51.970;5.892;2022-09-09T05:34:42;15.10;89.00
47338;DHT22;33069;51.970;5.892;2022-09-09T05:37:08;15.20;89.00
47338;DHT22;33069;51.970;5.892;2022-09-09T05:39:34;15.20;88.90
47338;DHT22;33069;51.970;5.892;2022-09-09T05:42:02;15.30;88.90
47338;DHT22;33069;51.970;5.892;2022-09-09T05:44:29;15.30;88.50
47338;DHT22;33069;51.970;5.892;2022-09-09T05:46:55;15.30;88.50
47338;DHT22;33069;51.970;5.892;2022-09-09T05:49:21;15.20;88.50
47338;DHT22;33069;51.970;5.892;2022-09-09T05:51:46;15.30;88.50
47338;DHT22;33069;51.970;5.892;2022-09-09T05:54:13;15.30;88.40
47338;DHT22;33069;51.970;5.892;2022-09-09T05:56:41;15.30;88.40
47338;DHT22;33069;51.970;5.892;2022-09-09T05:59:07;15.30;88.40
47338;DHT22;33069;51.970;5.892;2022-09-09T06:01:35;15.30;88.30
47338;DHT22;33069;51.970;5.892;2022-09-09T06:04:01;15.30;88.30
47338;DHT22;33069;51.970;5.892;2022-09-09T06:06:31;15.30;88.30
47338;DHT22;33069;51.970;5.892;2022-09-09T06:09:03;15.30;88.30
47338;DHT22;33069;51.970;5.892;2022-09-09T06:11:32;15.40;88.30
47338;DHT22;33069;51.970;5.892;2022-09-09T06:13:58;15.40;88.20
47338;DHT22;33069;51.970;5.892;2022-09-09T06:16:26;15.50;88.10
47338;DHT22;33069;51.970;5.892;2022-09-09T06:18:53;15.50;88.10
47338;DHT22;33069;51.970;5.892;2022-09-09T06:21:21;15.70;87.90
47338;DHT22;33069;51.970;5.892;2022-09-09T06:23:48;15.70;87.90
47338;DHT22;33069;51.970;5.892;2022-09-09T06:28:39;15.80;87.70
47338;DHT22;33069;51.970;5.892;2022-09-09T06:31:08;15.80;87.60
47338;DHT22;33069;51.970;5.892;2022-09-09T06:33:39;15.80;87.40
47338;DHT22;33069;51.970;5.892;2022-09-09T06:36:11;16.00;87.30
47338;DHT22;33069;51.970;5.892;2022-09-09T06:38:37;16.00;87.00
47338;DHT22;33069;51.970;5.892;2022-09-09T06:41:03;15.90;86.70
47338;DHT22;33069;51.970;5.892;2022-09-09T06:43:31;16.00;86.80
47338;DHT22;33069;51.970;5.892;2022-09-09T06:45:58;15.90;86.50
47338;DHT22;33069;51.970;5.892;2022-09-09T06:48:25;15.90;86.50
47338;DHT22;33069;51.970;5.892;2022-09-09T06:51:26;15.90;86.40
47338;DHT22;33069;51.970;5.892;2022-09-09T06:53:45;16.00;86.50
47338;DHT22;33069;51.970;5.892;2022-09-09T06:58:39;16.00;86.20
47338;DHT22;33069;51.970;5.892;2022-09-09T07:01:16;16.00;86.30
47338;DHT22;33069;51.970;5.892;2022-09-09T07:03:44;16.20;86.00
47338;DHT22;33069;51.970;5.892;2022-09-09T07:06:15;16.30;85.60
47338;DHT22;33069;51.970;5.892;2022-09-09T07:08:43;16.30;85.50
47338;DHT22;33069;51.970;5.892;2022-09-09T07:11:09;16.40;85.40
47338;DHT22;33069;51.970;5.892;2022-09-09T07:13:36;16.50;85.20
47338;DHT22;33069;51.970;5.892;2022-09-09T07:16:15;16.70;85.00
47338;DHT22;33069;51.970;5.892;2022-09-09T07:18:42;16.70;84.00
47338;DHT22;33069;51.970;5.892;2022-09-09T07:21:10;16.70;83.60
47338;DHT22;33069;51.970;5.892;2022-09-09T07:23:38;16.70;83.70
47338;DHT22;33069;51.970;5.892;2022-09-09T07:26:15;16.70;83.70
47338;DHT22;33069;51.970;5.892;2022-09-09T07:28:42;16.70;83.60
47338;DHT22;33069;51.970;5.892;2022-09-09T07:31:20;16.80;83.60
47338;DHT22;33069;51.970;5.892;2022-09-09T07:33:47;16.90;83.30
47338;DHT22;33069;51.970;5.892;2022-09-09T07:36:19;16.90;83.30
47338;DHT22;33069;51.970;5.892;2022-09-09T07:39:01;17.00;83.30
47338;DHT22;33069;51.970;5.892;2022-09-09T07:41:37;17.00;83.20
47338;DHT22;33069;51.970;5.892;2022-09-09T07:44:12;17.00;82.50
47338;DHT22;33069;51.970;5.892;2022-09-09T07:46:39;17.10;82.00
47338;DHT22;33069;51.970;5.892;2022-09-09T07:49:05;17.20;82.20
47338;DHT22;33069;51.970;5.892;2022-09-09T07:51:33;17.30;81.90
47338;DHT22;33069;51.970;5.892;2022-09-09T07:54:04;17.20;80.60
47338;DHT22;33069;51.970;5.892;2022-09-09T07:56:31;17.40;81.40
47338;DHT22;33069;51.970;5.892;2022-09-09T07:58:58;17.50;79.90
47338;DHT22;33069;51.970;5.892;2022-09-09T08:01:27;17.50;80.40
47338;DHT22;33069;51.970;5.892;2022-09-09T08:03:57;17.40;79.90
47338;DHT22;33069;51.970;5.892;2022-09-09T08:06:29;17.60;80.40
47338;DHT22;33069;51.970;5.892;2022-09-09T08:08:55;17.60;78.90
47338;DHT22;33069;51.970;5.892;2022-09-09T08:11:23;17.70;79.90
47338;DHT22;33069;51.970;5.892;2022-09-09T08:13:50;17.70;78.80
47338;DHT22;33069;51.970;5.892;2022-09-09T08:16:19;17.60;79.00
47338;DHT22;33069;51.970;5.892;2022-09-09T08:18:47;17.40;78.80
47338;DHT22;33069;51.970;5.892;2022-09-09T08:21:20;17.40;79.50
47338;DHT22;33069;51.970;5.892;2022-09-09T08:23:47;17.30;78.90
47338;DHT22;33069;51.970;5.892;2022-09-09T08:28:48;17.50;78.50
47338;DHT22;33069;51.970;5.892;2022-09-09T08:31:16;17.70;78.60
47338;DHT22;33069;51.970;5.892;2022-09-09T08:33:43;17.60;78.50
47338;DHT22;33069;51.970;5.892;2022-09-09T08:36:13;17.80;77.70
47338;DHT22;33069;51.970;5.892;2022-09-09T08:38:41;17.80;78.00
47338;DHT22;33069;51.970;5.892;2022-09-09T08:47:05;17.80;77.20
47338;DHT22;33069;51.970;5.892;2022-09-09T08:55:51;17.80;77.00
47338;DHT22;33069;51.970;5.892;2022-09-09T08:58:19;17.90;75.90
47338;DHT22;33069;51.970;5.892;2022-09-09T09:11:55;18.10;76.10
47338;DHT22;33069;51.970;5.892;2022-09-09T09:14:28;18.00;74.70
47338;DHT22;33069;51.970;5.892;2022-09-09T09:17:05;18.20;74.50
47338;DHT22;33069;51.970;5.892;2022-09-09T09:19:38;18.30;73.80
47338;DHT22;33069;51.970;5.892;2022-09-09T09:22:31;18.20;73.20
47338;DHT22;33069;51.970;5.892;2022-09-09T09:25:18;18.10;73.90
47338;DHT22;33069;51.970;5.892;2022-09-09T09:30:23;18.20;73.80
47338;DHT22;33069;51.970;5.892;2022-09-09T09:32:58;18.30;74.10
47338;DHT22;33069;51.970;5.892;2022-09-09T09:35:25;18.30;73.60
47338;DHT22;33069;51.970;5.892;2022-09-09T09:37:50;18.20;73.30
47338;DHT22;33069;51.970;5.892;2022-09-09T09:40:20;18.10;74.00
47338;DHT22;33069;51.970;5.892;2022-09-09T09:45:32;18.30;74.20
47338;DHT22;33069;51.970;5.892;2022-09-09T09:48:04;18.40;73.70
47338;DHT22;33069;51.970;5.892;2022-09-09T09:50:31;18.60;73.70
47338;DHT22;33069;51.970;5.892;2022-09-09T09:53:02;18.80;73.10
47338;DHT22;33069;51.970;5.892;2022-09-09T09:55:31;18.80;72.10
47338;DHT22;33069;51.970;5.892;2022-09-09T09:58:02;19.10;71.70
47338;DHT22;33069;51.970;5.892;2022-09-09T10:00:28;19.20;71.00
47338;DHT22;33069;51.970;5.892;2022-09-09T10:02:54;19.30;71.00
47338;DHT22;33069;51.970;5.892;2022-09-09T10:05:25;19.20;69.80
47338;DHT22;33069;51.970;5.892;2022-09-09T10:08:02;18.80;70.70
47338;DHT22;33069;51.970;5.892;2022-09-09T10:19:13;18.60;71.70
47338;DHT22;33069;51.970;5.892;2022-09-09T10:35:45;18.60;71.70
47338;DHT22;33069;51.970;5.892;2022-09-09T10:38:32;18.80;71.10
47338;DHT22;33069;51.970;5.892;2022-09-09T10:49:37;19.00;70.40
47338;DHT22;33069;51.970;5.892;2022-09-09T10:52:24;18.80;71.80
47338;DHT22;33069;51.970;5.892;2022-09-09T10:57:55;18.70;73.90
47338;DHT22;33069;51.970;5.892;2022-09-09T11:00:40;18.80;73.10
47338;DHT22;33069;51.970;5.892;2022-09-09T11:03:23;18.90;72.90
47338;DHT22;33069;51.970;5.892;2022-09-09T11:06:06;18.90;71.40
47338;DHT22;33069;51.970;5.892;2022-09-09T11:08:35;18.70;71.50
47338;DHT22;33069;51.970;5.892;2022-09-09T11:16:20;18.70;72.20
47338;DHT22;33069;51.970;5.892;2022-09-09T11:18:47;18.60;72.20
47338;DHT22;33069;51.970;5.892;2022-09-09T11:21:22;18.80;72.30
47338;DHT22;33069;51.970;5.892;2022-09-09T11:24:11;18.60;74.00
47338;DHT22;33069;51.970;5.892;2022-09-09T11:26:47;18.60;76.50
47338;DHT22;33069;51.970;5.892;2022-09-09T11:43:15;18.90;74.30
47338;DHT22;33069;51.970;5.892;2022-09-09T11:45:43;18.70;75.30
47338;DHT22;33069;51.970;5.892;2022-09-09T11:48:35;19.10;74.90
47338;DHT22;33069;51.970;5.892;2022-09-09T11:53:56;19.50;73.00
47338;DHT22;33069;51.970;5.892;2022-09-09T11:56:29;19.30;73.60
47338;DHT22;33069;51.970;5.892;2022-09-09T11:59:03;19.00;73.90
47338;DHT22;33069;51.970;5.892;2022-09-09T12:12:24;19.30;76.10
47338;DHT22;33069;51.970;5.892;2022-09-09T12:17:47;19.60;74.50
47338;DHT22;33069;51.970;5.892;2022-09-09T12:20:14;19.40;74.00
47338;DHT22;33069;51.970;5.892;2022-09-09T12:28:11;18.80;74.70
47338;DHT22;33069;51.970;5.892;2022-09-09T12:34:48;18.60;76.60
47338;DHT22;33069;51.970;5.892;2022-09-09T12:36:55;18.80;75.50
47338;DHT22;33069;51.970;5.892;2022-09-09T12:39:30;19.20;75.60
47338;DHT22;33069;51.970;5.892;2022-09-09T12:41:57;19.30;73.50
47338;DHT22;33069;51.970;5.892;2022-09-09T12:44:24;19.50;72.90
47338;DHT22;33069;51.970;5.892;2022-09-09T12:46:51;19.60;72.70
47338;DHT22;33069;51.970;5.892;2022-09-09T12:49:30;19.60;73.80
47338;DHT22;33069;51.970;5.892;2022-09-09T12:52:03;19.30;73.60
47338;DHT22;33069;51.970;5.892;2022-09-09T12:54:32;19.40;73.70
47338;DHT22;33069;51.970;5.892;2022-09-09T12:56:59;19.30;73.30
47338;DHT22;33069;51.970;5.892;2022-09-09T12:59:27;19.20;74.10
47338;DHT22;33069;51.970;5.892;2022-09-09T13:02:00;19.20;74.00
47338;DHT22;33069;51.970;5.892;2022-09-09T13:04:26;19.20;74.00
47338;DHT22;33069;51.970;5.892;2022-09-09T13:06:52;19.50;72.40
47338;DHT22;33069;51.970;5.892;2022-09-09T13:09:18;19.30;73.10
47338;DHT22;33069;51.970;5.892;2022-09-09T13:11:55;19.20;74.80
47338;DHT22;33069;51.970;5.892;2022-09-09T13:14:36;18.80;77.30
47338;DHT22;33069;51.970;5.892;2022-09-09T13:17:06;18.70;78.40
47338;DHT22;33069;51.970;5.892;2022-09-09T13:19:35;18.90;78.20
47338;DHT22;33069;51.970;5.892;2022-09-09T13:22:19;18.80;78.30
47338;DHT22;33069;51.970;5.892;2022-09-09T13:24:45;19.10;77.90
47338;DHT22;33069;51.970;5.892;2022-09-09T13:27:30;19.00;77.30
47338;DHT22;33069;51.970;5.892;2022-09-09T13:29:56;19.30;77.80
47338;DHT22;33069;51.970;5.892;2022-09-09T13:32:24;19.50;75.60
47338;DHT22;33069;51.970;5.892;2022-09-09T13:34:55;19.60;72.70
47338;DHT22;33069;51.970;5.892;2022-09-09T13:37:35;19.50;74.00
47338;DHT22;33069;51.970;5.892;2022-09-09T13:40:03;19.50;74.10
47338;DHT22;33069;51.970;5.892;2022-09-09T13:42:32;19.50;73.50
47338;DHT22;33069;51.970;5.892;2022-09-09T13:45:00;19.40;74.70
47338;DHT22;33069;51.970;5.892;2022-09-09T13:47:31;19.70;74.60
47338;DHT22;33069;51.970;5.892;2022-09-09T13:49:57;19.70;73.90
47338;DHT22;33069;51.970;5.892;2022-09-09T13:52:23;19.50;73.40
47338;DHT22;33069;51.970;5.892;2022-09-09T13:54:50;19.50;74.20
47338;DHT22;33069;51.970;5.892;2022-09-09T13:57:25;19.30;74.80
47338;DHT22;33069;51.970;5.892;2022-09-09T13:59:52;19.30;74.60
47338;DHT22;33069;51.970;5.892;2022-09-09T14:02:20;19.30;74.20
47338;DHT22;33069;51.970;5.892;2022-09-09T14:04:48;19.00;74.50
47338;DHT22;33069;51.970;5.892;2022-09-09T14:07:17;18.80;74.50
47338;DHT22;33069;51.970;5.892;2022-09-09T14:09:43;18.90;74.50
47338;DHT22;33069;51.970;5.892;2022-09-09T14:12:11;19.10;73.80
47338;DHT22;33069;51.970;5.892;2022-09-09T14:14:37;19.20;73.90
47338;DHT22;33069;51.970;5.892;2022-09-09T14:17:03;19.40;73.00
47338;DHT22;33069;51.970;5.892;2022-09-09T14:19:30;19.30;72.80
47338;DHT22;33069;51.970;5.892;2022-09-09T14:21:57;19.10;73.40
47338;DHT22;33069;51.970;5.892;2022-09-09T14:24:23;19.00;72.40
47338;DHT22;33069;51.970;5.892;2022-09-09T14:26:50;19.00;73.40
47338;DHT22;33069;51.970;5.892;2022-09-09T14:29:15;18.80;73.80
47338;DHT22;33069;51.970;5.892;2022-09-09T14:31:41;18.70;74.00
47338;DHT22;33069;51.970;5.892;2022-09-09T14:34:07;18.70;74.80
47338;DHT22;33069;51.970;5.892;2022-09-09T14:36:33;18.80;75.50
47338;DHT22;33069;51.970;5.892;2022-09-09T14:38:59;18.90;76.00
47338;DHT22;33069;51.970;5.892;2022-09-09T14:41:24;19.00;75.60
47338;DHT22;33069;51.970;5.892;2022-09-09T14:43:51;19.10;75.00
47338;DHT22;33069;51.970;5.892;2022-09-09T14:46:18;19.20;75.20
47338;DHT22;33069;51.970;5.892;2022-09-09T14:48:45;19.30;74.50
47338;DHT22;33069;51.970;5.892;2022-09-09T14:51:19;19.30;74.60
47338;DHT22;33069;51.970;5.892;2022-09-09T14:53:46;19.60;73.80
47338;DHT22;33069;51.970;5.892;2022-09-09T14:56:15;19.50;73.90
47338;DHT22;33069;51.970;5.892;2022-09-09T14:58:41;20.00;72.70
47338;DHT22;33069;51.970;5.892;2022-09-09T15:01:09;20.10;72.50
47338;DHT22;33069;51.970;5.892;2022-09-09T15:03:36;20.30;72.00
47338;DHT22;33069;51.970;5.892;2022-09-09T15:06:11;20.20;71.00
47338;DHT22;33069;51.970;5.892;2022-09-09T15:08:43;20.20;70.90
47338;DHT22;33069;51.970;5.892;2022-09-09T15:11:10;20.00;71.40
47338;DHT22;33069;51.970;5.892;2022-09-09T15:13:38;19.90;71.90
47338;DHT22;33069;51.970;5.892;2022-09-09T15:16:15;19.80;70.90
47338;DHT22;33069;51.970;5.892;2022-09-09T15:18:42;19.70;72.60
47338;DHT22;33069;51.970;5.892;2022-09-09T15:21:17;19.60;72.30
47338;DHT22;33069;51.970;5.892;2022-09-09T15:23:44;19.60;73.00
47338;DHT22;33069;51.970;5.892;2022-09-09T15:26:11;19.50;73.70
47338;DHT22;33069;51.970;5.892;2022-09-09T15:32:07;19.50;73.80
47338;DHT22;33069;51.970;5.892;2022-09-09T15:34:33;19.30;74.50
47338;DHT22;33069;51.970;5.892;2022-09-09T15:36:59;19.20;75.50
47338;DHT22;33069;51.970;5.892;2022-09-09T15:39:25;19.00;75.40
47338;DHT22;33069;51.970;5.892;2022-09-09T15:41:51;19.10;75.40
47338;DHT22;33069;51.970;5.892;2022-09-09T15:44:17;19.10;76.10
47338;DHT22;33069;51.970;5.892;2022-09-09T15:46:45;19.30;74.00
47338;DHT22;33069;51.970;5.892;2022-09-09T15:49:12;19.10;75.20
47338;DHT22;33069;51.970;5.892;2022-09-09T15:51:40;19.00;75.90
47338;DHT22;33069;51.970;5.892;2022-09-09T15:54:08;18.90;74.90
47338;DHT22;33069;51.970;5.892;2022-09-09T15:56:34;19.10;75.70
47338;DHT22;33069;51.970;5.892;2022-09-09T15:59:01;19.00;75.40
47338;DHT22;33069;51.970;5.892;2022-09-09T16:01:29;19.10;74.50
47338;DHT22;33069;51.970;5.892;2022-09-09T16:03:56;19.00;74.90
47338;DHT22;33069;51.970;5.892;2022-09-09T16:06:23;19.10;74.10
47338;DHT22;33069;51.970;5.892;2022-09-09T16:08:51;18.20;80.00
47338;DHT22;33069;51.970;5.892;2022-09-09T16:11:22;17.20;83.60
47338;DHT22;33069;51.970;5.892;2022-09-09T16:13:51;16.30;85.80
47338;DHT22;33069;51.970;5.892;2022-09-09T16:16:19;16.80;87.90
47338;DHT22;33069;51.970;5.892;2022-09-09T16:18:49;17.10;88.40
47338;DHT22;33069;51.970;5.892;2022-09-09T16:21:19;17.30;88.30
47338;DHT22;33069;51.970;5.892;2022-09-09T16:23:45;17.30;87.60
47338;DHT22;33069;51.970;5.892;2022-09-09T16:26:13;17.30;87.90
47338;DHT22;33069;51.970;5.892;2022-09-09T16:28:39;17.40;88.10
47338;DHT22;33069;51.970;5.892;2022-09-09T16:31:06;17.40;87.80
47338;DHT22;33069;51.970;5.892;2022-09-09T16:33:32;17.50;87.90
47338;DHT22;33069;51.970;5.892;2022-09-09T16:35:58;17.40;87.90
47338;DHT22;33069;51.970;5.892;2022-09-09T16:38:29;17.30;87.70
47338;DHT22;33069;51.970;5.892;2022-09-09T16:40:59;17.40;87.50
47338;DHT22;33069;51.970;5.892;2022-09-09T16:43:25;17.60;86.80
47338;DHT22;33069;51.970;5.892;2022-09-09T16:45:51;17.40;86.50
47338;DHT22;33069;51.970;5.892;2022-09-09T16:48:16;17.50;86.70
47338;DHT22;33069;51.970;5.892;2022-09-09T16:50:42;17.30;86.60
47338;DHT22;33069;51.970;5.892;2022-09-09T16:53:08;17.40;86.60
47338;DHT22;33069;51.970;5.892;2022-09-09T16:55:38;17.30;85.80
47338;DHT22;33069;51.970;5.892;2022-09-09T16:58:05;17.20;85.70
47338;DHT22;33069;51.970;5.892;2022-09-09T17:00:31;17.10;85.20
47338;DHT22;33069;51.970;5.892;2022-09-09T17:02:56;17.00;85.00
47338;DHT22;33069;51.970;5.892;2022-09-09T17:05:22;16.90;85.60
47338;DHT22;33069;51.970;5.892;2022-09-09T17:07:48;17.00;86.30
47338;DHT22;33069;51.970;5.892;2022-09-09T17:10:14;16.90;85.60
47338;DHT22;33069;51.970;5.892;2022-09-09T17:12:40;17.10;86.30
47338;DHT22;33069;51.970;5.892;2022-09-09T17:15:08;17.20;86.10
47338;DHT22;33069;51.970;5.892;2022-09-09T17:17:35;17.00;85.20
47338;DHT22;33069;51.970;5.892;2022-09-09T17:20:01;17.00;85.30
47338;DHT22;33069;51.970;5.892;2022-09-09T17:22:28;17.30;85.40
47338;DHT22;33069;51.970;5.892;2022-09-09T17:24:54;17.00;85.10
47338;DHT22;33069;51.970;5.892;2022-09-09T17:27:20;17.00;84.60
47338;DHT22;33069;51.970;5.892;2022-09-09T17:29:46;17.00;85.10
47338;DHT22;33069;51.970;5.892;2022-09-09T17:32:12;16.90;85.00
47338;DHT22;33069;51.970;5.892;2022-09-09T17:34:38;16.70;85.10
47338;DHT22;33069;51.970;5.892;2022-09-09T17:37:04;16.80;85.40
47338;DHT22;33069;51.970;5.892;2022-09-09T17:39:32;16.80;85.70
47338;DHT22;33069;51.970;5.892;2022-09-09T17:41:57;16.70;85.70
47338;DHT22;33069;51.970;5.892;2022-09-09T17:44:23;16.80;86.00
47338;DHT22;33069;51.970;5.892;2022-09-09T17:46:49;16.50;85.70
47338;DHT22;33069;51.970;5.892;2022-09-09T17:49:16;16.60;85.90
47338;DHT22;33069;51.970;5.892;2022-09-09T17:51:43;16.50;85.90
47338;DHT22;33069;51.970;5.892;2022-09-09T17:54:15;16.60;86.00
47338;DHT22;33069;51.970;5.892;2022-09-09T17:56:42;16.60;86.30
47338;DHT22;33069;51.970;5.892;2022-09-09T17:59:09;16.50;86.40
47338;DHT22;33069;51.970;5.892;2022-09-09T18:01:37;16.50;86.70
47338;DHT22;33069;51.970;5.892;2022-09-09T18:04:05;16.50;86.90
47338;DHT22;33069;51.970;5.892;2022-09-09T18:06:34;16.40;87.00
47338;DHT22;33069;51.970;5.892;2022-09-09T18:09:05;16.40;87.20
47338;DHT22;33069;51.970;5.892;2022-09-09T18:11:35;16.40;87.50
47338;DHT22;33069;51.970;5.892;2022-09-09T18:14:04;16.40;87.50
47338;DHT22;33069;51.970;5.892;2022-09-09T18:16:32;16.30;87.60
47338;DHT22;33069;51.970;5.892;2022-09-09T18:19:03;16.30;87.60
47338;DHT22;33069;51.970;5.892;2022-09-09T18:21:30;16.40;87.70
47338;DHT22;33069;51.970;5.892;2022-09-09T18:23:59;16.30;87.70
47338;DHT22;33069;51.970;5.892;2022-09-09T18:26:26;16.40;87.90